sensor_id;sensor_type;location;lat;lon;timestamp;P1;durP1;ratioP1;P2;durP2;ratioP2
24799;SDS011;12897;50.812;4.430;2023-03-26T00:01:20;20.23;;;3.35;;
24799;SDS011;12897;50.812;4.430;2023-03-26T00:03:51;14.13;;;2.87;;
24799;SDS011;12897;50.812;4.430;2023-03-26T00:06:23;25.50;;;3.50;;
24799;SDS011;12897;50.812;4.430;2023-03-26T00:08:54;24.40;;;3.50;;
24799;SDS011;12897;50.812;4.430;2023-03-26T00:11:24;22.77;;;3.30;;
24799;SDS011;12897;50.812;4.430;2023-03-26T00:13:53;17.20;;;3.55;;
24799;SDS011;12897;50.812;4.430;2023-03-26T00:16:26;31.12;;;5.12;;
24799;SDS011;12897;50.812;4.430;2023-03-26T00:18:55;27.95;;;3.98;;
24799;SDS011;12897;50.812;4.430;2023-03-26T00:21:25;18.87;;;3.20;;
24799;SDS011;12897;50.812;4.430;2023-03-26T00:23:54;26.55;;;4.25;;
24799;SDS011;12897;50.812;4.430;2023-03-26T00:26:23;40.90;;;4.72;;
24799;SDS011;12897;50.812;4.430;2023-03-26T00:28:51;28.65;;;4.35;;
24799;SDS011;12897;50.812;4.430;2023-03-26T00:31:19;24.43;;;4.28;;
24799;SDS011;12897;50.812;4.430;2023-03-26T00:33:46;25.97;;;4.10;;
24799;SDS011;12897;50.812;4.430;2023-03-26T00:36:17;26.02;;;4.10;;
24799;SDS011;12897;50.812;4.430;2023-03-26T00:38:46;25.00;;;3.72;;
24799;SDS011;12897;50.812;4.430;2023-03-26T00:41:15;34.50;;;4.65;;
24799;SDS011;12897;50.812;4.430;2023-03-26T00:43:45;29.32;;;5.17;;
24799;SDS011;12897;50.812;4.430;2023-03-26T00:46:13;33.13;;;4.70;;
24799;SDS011;12897;50.812;4.430;2023-03-26T00:48:42;29.02;;;4.42;;
24799;SDS011;12897;50.812;4.430;2023-03-26T00:51:11;27.20;;;4.12;;
24799;SDS011;12897;50.812;4.430;2023-03-26T00:53:41;30.57;;;4.67;;
24799;SDS011;12897;50.812;4.430;2023-03-26T00:56:09;26.75;;;4.58;;
24799;SDS011;12897;50.812;4.430;2023-03-26T00:58:37;33.38;;;4.62;;
24799;SDS011;12897;50.812;4.430;2023-03-26T01:01:07;35.63;;;4.72;;
24799;SDS011;12897;50.812;4.430;2023-03-26T01:03:37;32.60;;;9.30;;
24799;SDS011;12897;50.812;4.430;2023-03-26T01:06:06;25.12;;;5.42;;
24799;SDS011;12897;50.812;4.430;2023-03-26T01:08:41;29.07;;;4.75;;
24799;SDS011;12897;50.812;4.430;2023-03-26T01:11:12;31.48;;;4.80;;
24799;SDS011;12897;50.812;4.430;2023-03-26T01:13:48;31.07;;;5.42;;
24799;SDS011;12897;50.812;4.430;2023-03-26T01:16:30;33.20;;;4.75;;
24799;SDS011;12897;50.812;4.430;2023-03-26T01:18:54;27.35;;;4.92;;
24799;SDS011;12897;50.812;4.430;2023-03-26T01:21:24;34.05;;;6.00;;
24799;SDS011;12897;50.812;4.430;2023-03-26T01:23:55;43.28;;;6.58;;
24799;SDS011;12897;50.812;4.430;2023-03-26T01:29:43;27.93;;;4.95;;
24799;SDS011;12897;50.812;4.430;2023-03-26T01:32:00;32.00;;;5.05;;
24799;SDS011;12897;50.812;4.430;2023-03-26T01:37:36;28.52;;;5.50;;
24799;SDS011;12897;50.812;4.430;2023-03-26T01:39:55;28.10;;;4.97;;
24799;SDS011;12897;50.812;4.430;2023-03-26T01:42:30;21.70;;;4.85;;
24799;SDS011;12897;50.812;4.430;2023-03-26T01:45:05;31.15;;;5.42;;
24799;SDS011;12897;50.812;4.430;2023-03-26T01:47:31;30.75;;;5.10;;
24799;SDS011;12897;50.812;4.430;2023-03-26T01:50:00;26.93;;;5.12;;
24799;SDS011;12897;50.812;4.430;2023-03-26T01:52:28;35.65;;;5.60;;
24799;SDS011;12897;50.812;4.430;2023-03-26T01:54:56;29.30;;;4.83;;
24799;SDS011;12897;50.812;4.430;2023-03-26T02:00:23;30.60;;;5.37;;
24799;SDS011;12897;50.812;4.430;2023-03-26T02:05:51;31.23;;;4.78;;
24799;SDS011;12897;50.812;4.430;2023-03-26T02:08:32;25.43;;;4.65;;
24799;SDS011;12897;50.812;4.430;2023-03-26T02:11:04;26.82;;;4.92;;
24799;SDS011;12897;50.812;4.430;2023-03-26T02:13:35;28.85;;;4.58;;
24799;SDS011;12897;50.812;4.430;2023-03-26T02:16:04;21.60;;;4.00;;
24799;SDS011;12897;50.812;4.430;2023-03-26T02:18:36;32.50;;;5.03;;
24799;SDS011;12897;50.812;4.430;2023-03-26T02:21:08;24.70;;;4.35;;
24799;SDS011;12897;50.812;4.430;2023-03-26T02:23:42;40.58;;;5.37;;
24799;SDS011;12897;50.812;4.430;2023-03-26T02:26:14;32.15;;;4.85;;
24799;SDS011;12897;50.812;4.430;2023-03-26T02:28:43;28.15;;;4.47;;
24799;SDS011;12897;50.812;4.430;2023-03-26T02:31:10;29.10;;;4.50;;
24799;SDS011;12897;50.812;4.430;2023-03-26T02:33:38;30.02;;;4.25;;
24799;SDS011;12897;50.812;4.430;2023-03-26T02:36:08;30.27;;;4.70;;
24799;SDS011;12897;50.812;4.430;2023-03-26T02:38:38;29.90;;;4.67;;
24799;SDS011;12897;50.812;4.430;2023-03-26T02:41:06;32.73;;;4.67;;
24799;SDS011;12897;50.812;4.430;2023-03-26T02:43:34;29.23;;;4.42;;
24799;SDS011;12897;50.812;4.430;2023-03-26T02:46:01;22.58;;;4.65;;
24799;SDS011;12897;50.812;4.430;2023-03-26T02:48:29;26.30;;;4.55;;
24799;SDS011;12897;50.812;4.430;2023-03-26T02:50:56;31.60;;;5.05;;
24799;SDS011;12897;50.812;4.430;2023-03-26T02:53:24;29.05;;;5.47;;
24799;SDS011;12897;50.812;4.430;2023-03-26T02:55:53;32.50;;;4.63;;
24799;SDS011;12897;50.812;4.430;2023-03-26T02:58:21;35.35;;;4.95;;
24799;SDS011;12897;50.812;4.430;2023-03-26T03:00:51;32.80;;;5.37;;
24799;SDS011;12897;50.812;4.430;2023-03-26T03:03:27;23.75;;;4.28;;
24799;SDS011;12897;50.812;4.430;2023-03-26T03:05:52;29.42;;;4.53;;
24799;SDS011;12897;50.812;4.430;2023-03-26T03:08:21;28.25;;;4.87;;
24799;SDS011;12897;50.812;4.430;2023-03-26T03:10:55;23.98;;;4.58;;
24799;SDS011;12897;50.812;4.430;2023-03-26T03:13:24;28.15;;;5.30;;
24799;SDS011;12897;50.812;4.430;2023-03-26T03:15:52;21.90;;;4.62;;
24799;SDS011;12897;50.812;4.430;2023-03-26T03:18:20;27.75;;;4.45;;
24799;SDS011;12897;50.812;4.430;2023-03-26T03:20:48;32.05;;;4.70;;
24799;SDS011;12897;50.812;4.430;2023-03-26T03:23:16;17.90;;;3.85;;
24799;SDS011;12897;50.812;4.430;2023-03-26T03:25:44;30.12;;;4.75;;
24799;SDS011;12897;50.812;4.430;2023-03-26T03:28:11;29.82;;;4.90;;
24799;SDS011;12897;50.812;4.430;2023-03-26T03:30:40;29.77;;;5.00;;
24799;SDS011;12897;50.812;4.430;2023-03-26T03:33:07;24.52;;;4.22;;
24799;SDS011;12897;50.812;4.430;2023-03-26T03:35:35;22.73;;;4.42;;
24799;SDS011;12897;50.812;4.430;2023-03-26T03:38:03;27.35;;;4.87;;
24799;SDS011;12897;50.812;4.430;2023-03-26T03:40:30;27.82;;;4.55;;
24799;SDS011;12897;50.812;4.430;2023-03-26T03:42:58;32.17;;;4.50;;
24799;SDS011;12897;50.812;4.430;2023-03-26T03:45:25;25.97;;;5.45;;
24799;SDS011;12897;50.812;4.430;2023-03-26T03:47:53;26.27;;;4.37;;
24799;SDS011;12897;50.812;4.430;2023-03-26T03:50:20;27.42;;;4.35;;
24799;SDS011;12897;50.812;4.430;2023-03-26T03:52:48;22.82;;;4.35;;
24799;SDS011;12897;50.812;4.430;2023-03-26T03:55:15;23.10;;;3.65;;
24799;SDS011;12897;50.812;4.430;2023-03-26T03:57:43;26.45;;;3.90;;
24799;SDS011;12897;50.812;4.430;2023-03-26T04:00:11;21.25;;;4.25;;
24799;SDS011;12897;50.812;4.430;2023-03-26T04:02:40;32.78;;;4.10;;
24799;SDS011;12897;50.812;4.430;2023-03-26T04:05:11;23.73;;;4.08;;
24799;SDS011;12897;50.812;4.430;2023-03-26T04:07:38;24.65;;;3.75;;
24799;SDS011;12897;50.812;4.430;2023-03-26T04:10:06;26.68;;;3.72;;
24799;SDS011;12897;50.812;4.430;2023-03-26T04:12:35;22.05;;;4.05;;
24799;SDS011;12897;50.812;4.430;2023-03-26T04:15:03;26.30;;;4.12;;
24799;SDS011;12897;50.812;4.430;2023-03-26T04:17:31;26.25;;;4.05;;
24799;SDS011;12897;50.812;4.430;2023-03-26T04:19:58;26.80;;;4.90;;
24799;SDS011;12897;50.812;4.430;2023-03-26T04:22:28;29.03;;;4.17;;
24799;SDS011;12897;50.812;4.430;2023-03-26T04:24:57;27.23;;;4.40;;
24799;SDS011;12897;50.812;4.430;2023-03-26T04:27:27;36.73;;;4.33;;
24799;SDS011;12897;50.812;4.430;2023-03-26T04:29:57;24.40;;;3.77;;
24799;SDS011;12897;50.812;4.430;2023-03-26T04:32:27;26.90;;;4.08;;
24799;SDS011;12897;50.812;4.430;2023-03-26T04:35:03;26.82;;;4.80;;
24799;SDS011;12897;50.812;4.430;2023-03-26T04:37:39;29.32;;;4.40;;
24799;SDS011;12897;50.812;4.430;2023-03-26T04:40:05;27.60;;;4.15;;
24799;SDS011;12897;50.812;4.430;2023-03-26T04:42:35;27.75;;;4.17;;
24799;SDS011;12897;50.812;4.430;2023-03-26T04:45:05;38.35;;;4.87;;
24799;SDS011;12897;50.812;4.430;2023-03-26T04:47:34;29.80;;;4.78;;
24799;SDS011;12897;50.812;4.430;2023-03-26T04:50:04;24.85;;;4.35;;
24799;SDS011;12897;50.812;4.430;2023-03-26T04:52:34;27.85;;;4.40;;
24799;SDS011;12897;50.812;4.430;2023-03-26T04:55:02;32.53;;;4.55;;
24799;SDS011;12897;50.812;4.430;2023-03-26T04:57:40;27.13;;;4.00;;
24799;SDS011;12897;50.812;4.430;2023-03-26T05:00:07;24.20;;;3.87;;
24799;SDS011;12897;50.812;4.430;2023-03-26T05:02:37;25.08;;;3.90;;
24799;SDS011;12897;50.812;4.430;2023-03-26T05:05:06;29.33;;;4.27;;
24799;SDS011;12897;50.812;4.430;2023-03-26T05:07:35;22.52;;;3.98;;
24799;SDS011;12897;50.812;4.430;2023-03-26T05:10:03;28.52;;;4.30;;
24799;SDS011;12897;50.812;4.430;2023-03-26T05:12:32;20.57;;;3.40;;
24799;SDS011;12897;50.812;4.430;2023-03-26T05:14:59;18.90;;;3.90;;
24799;SDS011;12897;50.812;4.430;2023-03-26T05:17:27;21.10;;;2.75;;
24799;SDS011;12897;50.812;4.430;2023-03-26T05:19:56;15.37;;;3.03;;
24799;SDS011;12897;50.812;4.430;2023-03-26T05:22:23;14.85;;;3.40;;
24799;SDS011;12897;50.812;4.430;2023-03-26T05:24:51;18.15;;;3.02;;
24799;SDS011;12897;50.812;4.430;2023-03-26T05:27:19;21.40;;;3.05;;
24799;SDS011;12897;50.812;4.430;2023-03-26T05:29:46;20.25;;;3.55;;
24799;SDS011;12897;50.812;4.430;2023-03-26T05:32:14;19.30;;;4.08;;
24799;SDS011;12897;50.812;4.430;2023-03-26T05:34:42;17.70;;;2.92;;
24799;SDS011;12897;50.812;4.430;2023-03-26T05:37:09;16.62;;;3.20;;
24799;SDS011;12897;50.812;4.430;2023-03-26T05:39:38;19.15;;;3.35;;
24799;SDS011;12897;50.812;4.430;2023-03-26T05:42:06;20.92;;;3.12;;
24799;SDS011;12897;50.812;4.430;2023-03-26T05:44:34;15.55;;;2.70;;
24799;SDS011;12897;50.812;4.430;2023-03-26T05:47:01;28.45;;;3.37;;
24799;SDS011;12897;50.812;4.430;2023-03-26T05:49:29;16.35;;;2.98;;
24799;SDS011;12897;50.812;4.430;2023-03-26T05:51:56;18.37;;;3.02;;
24799;SDS011;12897;50.812;4.430;2023-03-26T05:54:24;27.45;;;3.80;;
24799;SDS011;12897;50.812;4.430;2023-03-26T05:56:51;15.78;;;3.17;;
24799;SDS011;12897;50.812;4.430;2023-03-26T05:59:20;23.10;;;3.60;;
24799;SDS011;12897;50.812;4.430;2023-03-26T06:01:48;17.20;;;3.45;;
24799;SDS011;12897;50.812;4.430;2023-03-26T06:04:16;17.95;;;3.65;;
24799;SDS011;12897;50.812;4.430;2023-03-26T06:06:45;18.02;;;3.27;;
24799;SDS011;12897;50.812;4.430;2023-03-26T06:09:13;15.35;;;3.05;;
24799;SDS011;12897;50.812;4.430;2023-03-26T06:11:43;22.62;;;3.30;;
24799;SDS011;12897;50.812;4.430;2023-03-26T06:14:10;21.48;;;3.45;;
24799;SDS011;12897;50.812;4.430;2023-03-26T06:16:38;20.88;;;3.37;;
24799;SDS011;12897;50.812;4.430;2023-03-26T06:19:08;21.57;;;3.98;;
24799;SDS011;12897;50.812;4.430;2023-03-26T06:21:35;18.43;;;4.20;;
24799;SDS011;12897;50.812;4.430;2023-03-26T06:24:03;22.82;;;4.20;;
24799;SDS011;12897;50.812;4.430;2023-03-26T06:26:33;22.05;;;3.55;;
24799;SDS011;12897;50.812;4.430;2023-03-26T06:29:07;19.95;;;3.20;;
24799;SDS011;12897;50.812;4.430;2023-03-26T06:31:47;17.05;;;3.00;;
24799;SDS011;12897;50.812;4.430;2023-03-26T06:34:16;18.80;;;2.93;;
24799;SDS011;12897;50.812;4.430;2023-03-26T06:36:45;19.73;;;4.17;;
24799;SDS011;12897;50.812;4.430;2023-03-26T06:39:14;13.27;;;2.93;;
24799;SDS011;12897;50.812;4.430;2023-03-26T06:41:45;14.87;;;2.33;;
24799;SDS011;12897;50.812;4.430;2023-03-26T06:44:12;15.03;;;3.15;;
24799;SDS011;12897;50.812;4.430;2023-03-26T06:46:42;20.27;;;3.40;;
24799;SDS011;12897;50.812;4.430;2023-03-26T06:49:09;19.07;;;3.58;;
24799;SDS011;12897;50.812;4.430;2023-03-26T06:51:41;15.85;;;2.90;;
24799;SDS011;12897;50.812;4.430;2023-03-26T06:54:10;13.80;;;2.77;;
24799;SDS011;12897;50.812;4.430;2023-03-26T06:56:38;9.60;;;2.20;;
24799;SDS011;12897;50.812;4.430;2023-03-26T06:59:07;6.10;;;1.62;;
24799;SDS011;12897;50.812;4.430;2023-03-26T07:01:35;8.50;;;1.95;;
24799;SDS011;12897;50.812;4.430;2023-03-26T07:04:02;11.85;;;2.00;;
24799;SDS011;12897;50.812;4.430;2023-03-26T07:06:33;9.83;;;2.15;;
24799;SDS011;12897;50.812;4.430;2023-03-26T07:09:03;8.13;;;2.42;;
24799;SDS011;12897;50.812;4.430;2023-03-26T07:11:31;5.62;;;1.45;;
24799;SDS011;12897;50.812;4.430;2023-03-26T07:13:58;10.23;;;2.33;;
24799;SDS011;12897;50.812;4.430;2023-03-26T07:16:26;13.28;;;2.55;;
24799;SDS011;12897;50.812;4.430;2023-03-26T07:18:54;9.30;;;2.42;;
24799;SDS011;12897;50.812;4.430;2023-03-26T07:21:21;12.10;;;2.10;;
24799;SDS011;12897;50.812;4.430;2023-03-26T07:23:49;8.55;;;2.15;;
24799;SDS011;12897;50.812;4.430;2023-03-26T07:26:31;11.48;;;1.95;;
24799;SDS011;12897;50.812;4.430;2023-03-26T07:31:33;12.93;;;2.65;;
24799;SDS011;12897;50.812;4.430;2023-03-26T07:37:11;8.23;;;2.02;;
24799;SDS011;12897;50.812;4.430;2023-03-26T07:39:38;7.67;;;1.80;;
24799;SDS011;12897;50.812;4.430;2023-03-26T07:42:24;6.22;;;1.92;;
24799;SDS011;12897;50.812;4.430;2023-03-26T07:45:10;9.23;;;1.77;;
24799;SDS011;12897;50.812;4.430;2023-03-26T07:47:41;7.65;;;1.60;;
24799;SDS011;12897;50.812;4.430;2023-03-26T07:50:13;11.20;;;2.17;;
24799;SDS011;12897;50.812;4.430;2023-03-26T07:52:43;8.20;;;1.72;;
24799;SDS011;12897;50.812;4.430;2023-03-26T07:55:11;10.85;;;2.05;;
24799;SDS011;12897;50.812;4.430;2023-03-26T07:57:46;6.60;;;1.30;;
24799;SDS011;12897;50.812;4.430;2023-03-26T08:00:25;9.10;;;1.90;;
24799;SDS011;12897;50.812;4.430;2023-03-26T08:05:33;8.55;;;1.70;;
24799;SDS011;12897;50.812;4.430;2023-03-26T08:19:23;7.92;;;1.50;;
24799;SDS011;12897;50.812;4.430;2023-03-26T08:22:13;4.40;;;1.70;;
24799;SDS011;12897;50.812;4.430;2023-03-26T08:27:36;8.33;;;1.60;;
24799;SDS011;12897;50.812;4.430;2023-03-26T08:30:19;8.20;;;2.12;;
24799;SDS011;12897;50.812;4.430;2023-03-26T08:32:56;7.40;;;2.05;;
24799;SDS011;12897;50.812;4.430;2023-03-26T08:35:38;6.92;;;1.60;;
24799;SDS011;12897;50.812;4.430;2023-03-26T08:38:17;6.55;;;1.52;;
24799;SDS011;12897;50.812;4.430;2023-03-26T08:43:42;6.65;;;1.50;;
24799;SDS011;12897;50.812;4.430;2023-03-26T08:46:20;7.58;;;2.00;;
24799;SDS011;12897;50.812;4.430;2023-03-26T08:49:08;7.15;;;1.35;;
24799;SDS011;12897;50.812;4.430;2023-03-26T08:51:44;4.87;;;1.57;;
24799;SDS011;12897;50.812;4.430;2023-03-26T08:56:52;3.22;;;1.60;;
24799;SDS011;12897;50.812;4.430;2023-03-26T08:59:34;8.48;;;1.95;;
24799;SDS011;12897;50.812;4.430;2023-03-26T09:31:13;8.23;;;1.75;;
24799;SDS011;12897;50.812;4.430;2023-03-26T09:34:01;8.10;;;2.05;;
24799;SDS011;12897;50.812;4.430;2023-03-26T09:39:33;5.30;;;1.92;;
24799;SDS011;12897;50.812;4.430;2023-03-26T09:45:14;7.00;;;2.02;;
24799;SDS011;12897;50.812;4.430;2023-03-26T09:47:47;4.47;;;1.95;;
24799;SDS011;12897;50.812;4.430;2023-03-26T09:50:28;7.03;;;2.33;;
24799;SDS011;12897;50.812;4.430;2023-03-26T09:53:15;6.08;;;2.70;;
24799;SDS011;12897;50.812;4.430;2023-03-26T10:06:59;7.72;;;1.77;;
24799;SDS011;12897;50.812;4.430;2023-03-26T10:12:26;9.23;;;2.67;;
24799;SDS011;12897;50.812;4.430;2023-03-26T10:15:00;5.90;;;2.15;;
24799;SDS011;12897;50.812;4.430;2023-03-26T10:17:45;8.35;;;2.05;;
24799;SDS011;12897;50.812;4.430;2023-03-26T10:20:25;11.30;;;3.47;;
24799;SDS011;12897;50.812;4.430;2023-03-26T10:23:03;9.15;;;2.65;;
24799;SDS011;12897;50.812;4.430;2023-03-26T10:31:05;10.50;;;3.62;;
24799;SDS011;12897;50.812;4.430;2023-03-26T10:47:52;6.42;;;2.45;;
24799;SDS011;12897;50.812;4.430;2023-03-26T10:53:03;7.40;;;2.72;;
24799;SDS011;12897;50.812;4.430;2023-03-26T10:55:51;5.05;;;2.35;;
24799;SDS011;12897;50.812;4.430;2023-03-26T10:58:25;6.87;;;2.45;;
24799;SDS011;12897;50.812;4.430;2023-03-26T11:00:57;6.35;;;2.90;;
24799;SDS011;12897;50.812;4.430;2023-03-26T11:03:30;7.15;;;2.40;;
24799;SDS011;12897;50.812;4.430;2023-03-26T11:20:42;8.25;;;2.60;;
24799;SDS011;12897;50.812;4.430;2023-03-26T11:23:17;6.35;;;3.08;;
24799;SDS011;12897;50.812;4.430;2023-03-26T11:26:04;7.50;;;2.92;;
24799;SDS011;12897;50.812;4.430;2023-03-26T11:34:14;7.25;;;2.75;;
24799;SDS011;12897;50.812;4.430;2023-03-26T11:36:47;13.28;;;3.58;;
24799;SDS011;12897;50.812;4.430;2023-03-26T11:39:14;6.37;;;2.72;;
24799;SDS011;12897;50.812;4.430;2023-03-26T11:42:15;7.83;;;3.40;;
24799;SDS011;12897;50.812;4.430;2023-03-26T11:44:25;6.62;;;3.35;;
24799;SDS011;12897;50.812;4.430;2023-03-26T11:47:04;7.25;;;3.60;;
24799;SDS011;12897;50.812;4.430;2023-03-26T11:49:34;8.35;;;3.40;;
24799;SDS011;12897;50.812;4.430;2023-03-26T11:52:03;10.25;;;4.08;;
24799;SDS011;12897;50.812;4.430;2023-03-26T11:54:36;6.40;;;2.73;;
24799;SDS011;12897;50.812;4.430;2023-03-26T11:57:08;6.92;;;2.95;;
24799;SDS011;12897;50.812;4.430;2023-03-26T11:59:39;7.50;;;3.45;;
24799;SDS011;12897;50.812;4.430;2023-03-26T12:04:43;8.03;;;3.58;;
24799;SDS011;12897;50.812;4.430;2023-03-26T12:07:22;8.75;;;3.27;;
24799;SDS011;12897;50.812;4.430;2023-03-26T12:09:58;6.50;;;2.90;;
24799;SDS011;12897;50.812;4.430;2023-03-26T12:12:40;6.47;;;2.92;;
24799;SDS011;12897;50.812;4.430;2023-03-26T12:15:13;8.68;;;3.65;;
24799;SDS011;12897;50.812;4.430;2023-03-26T12:17:46;4.92;;;2.95;;
24799;SDS011;12897;50.812;4.430;2023-03-26T12:20:25;8.60;;;2.75;;
24799;SDS011;12897;50.812;4.430;2023-03-26T12:22:51;10.18;;;3.20;;
24799;SDS011;12897;50.812;4.430;2023-03-26T12:25:23;6.70;;;2.77;;
24799;SDS011;12897;50.812;4.430;2023-03-26T12:30:50;8.45;;;2.95;;
24799;SDS011;12897;50.812;4.430;2023-03-26T12:33:26;8.53;;;3.02;;
24799;SDS011;12897;50.812;4.430;2023-03-26T12:36:18;9.80;;;3.17;;
24799;SDS011;12897;50.812;4.430;2023-03-26T12:38:51;7.58;;;2.72;;
24799;SDS011;12897;50.812;4.430;2023-03-26T12:41:20;5.75;;;3.10;;
24799;SDS011;12897;50.812;4.430;2023-03-26T12:43:52;5.45;;;3.20;;
24799;SDS011;12897;50.812;4.430;2023-03-26T12:46:23;7.15;;;2.90;;
24799;SDS011;12897;50.812;4.430;2023-03-26T12:49:08;4.78;;;2.67;;
24799;SDS011;12897;50.812;4.430;2023-03-26T12:54:33;7.28;;;3.52;;
24799;SDS011;12897;50.812;4.430;2023-03-26T12:57:11;6.83;;;2.40;;
24799;SDS011;12897;50.812;4.430;2023-03-26T12:59:44;8.13;;;2.95;;
24799;SDS011;12897;50.812;4.430;2023-03-26T13:02:40;7.42;;;2.52;;
24799;SDS011;12897;50.812;4.430;2023-03-26T13:07:58;10.75;;;3.02;;
24799;SDS011;12897;50.812;4.430;2023-03-26T13:13:38;8.63;;;3.08;;
24799;SDS011;12897;50.812;4.430;2023-03-26T13:16:36;4.83;;;3.08;;
24799;SDS011;12897;50.812;4.430;2023-03-26T13:18:55;6.15;;;2.92;;
24799;SDS011;12897;50.812;4.430;2023-03-26T13:21:33;7.62;;;2.70;;
24799;SDS011;12897;50.812;4.430;2023-03-26T13:24:07;2.55;;;2.10;;
24799;SDS011;12897;50.812;4.430;2023-03-26T13:32:31;3.50;;;1.82;;
24799;SDS011;12897;50.812;4.430;2023-03-26T13:37:52;4.42;;;1.87;;
24799;SDS011;12897;50.812;4.430;2023-03-26T13:43:25;5.47;;;2.00;;
24799;SDS011;12897;50.812;4.430;2023-03-26T13:45:59;4.15;;;1.87;;
24799;SDS011;12897;50.812;4.430;2023-03-26T13:51:18;7.20;;;2.40;;
24799;SDS011;12897;50.812;4.430;2023-03-26T13:53:49;5.35;;;1.45;;
24799;SDS011;12897;50.812;4.430;2023-03-26T13:56:28;4.47;;;1.72;;
24799;SDS011;12897;50.812;4.430;2023-03-26T13:59:03;2.50;;;0.82;;
24799;SDS011;12897;50.812;4.430;2023-03-26T14:01:33;2.80;;;1.10;;
24799;SDS011;12897;50.812;4.430;2023-03-26T14:04:08;3.45;;;1.72;;
24799;SDS011;12897;50.812;4.430;2023-03-26T14:06:56;3.02;;;1.57;;
24799;SDS011;12897;50.812;4.430;2023-03-26T14:09:35;3.98;;;2.22;;
24799;SDS011;12897;50.812;4.430;2023-03-26T14:15:20;6.70;;;1.65;;
24799;SDS011;12897;50.812;4.430;2023-03-26T14:17:57;3.20;;;1.65;;
24799;SDS011;12897;50.812;4.430;2023-03-26T14:20:50;2.58;;;1.60;;
24799;SDS011;12897;50.812;4.430;2023-03-26T14:38:01;4.87;;;2.95;;
24799;SDS011;12897;50.812;4.430;2023-03-26T14:43:51;2.58;;;2.00;;
24799;SDS011;12897;50.812;4.430;2023-03-26T14:52:18;3.87;;;2.25;;
24799;SDS011;12897;50.812;4.430;2023-03-26T14:54:47;8.33;;;2.70;;
24799;SDS011;12897;50.812;4.430;2023-03-26T15:08:40;4.95;;;2.67;;
24799;SDS011;12897;50.812;4.430;2023-03-26T15:19:47;4.67;;;2.77;;
24799;SDS011;12897;50.812;4.430;2023-03-26T15:25:20;6.40;;;2.95;;
24799;SDS011;12897;50.812;4.430;2023-03-26T15:31:05;8.50;;;3.33;;
24799;SDS011;12897;50.812;4.430;2023-03-26T15:44:57;6.05;;;3.75;;
24799;SDS011;12897;50.812;4.430;2023-03-26T15:50:20;9.63;;;5.35;;
24799;SDS011;12897;50.812;4.430;2023-03-26T15:55:41;9.88;;;5.20;;
24799;SDS011;12897;50.812;4.430;2023-03-26T15:58:18;10.45;;;6.25;;
24799;SDS011;12897;50.812;4.430;2023-03-26T16:12:23;9.48;;;6.37;;
24799;SDS011;12897;50.812;4.430;2023-03-26T16:17:17;9.95;;;5.75;;
24799;SDS011;12897;50.812;4.430;2023-03-26T16:25:19;17.00;;;7.53;;
24799;SDS011;12897;50.812;4.430;2023-03-26T16:28:15;27.80;;;8.18;;
24799;SDS011;12897;50.812;4.430;2023-03-26T16:30:38;24.60;;;8.15;;
24799;SDS011;12897;50.812;4.430;2023-03-26T16:33:11;26.10;;;7.37;;
24799;SDS011;12897;50.812;4.430;2023-03-26T16:38:47;28.73;;;7.83;;
24799;SDS011;12897;50.812;4.430;2023-03-26T16:41:29;23.80;;;8.00;;
24799;SDS011;12897;50.812;4.430;2023-03-26T16:44:03;26.60;;;7.55;;
24799;SDS011;12897;50.812;4.430;2023-03-26T16:49:29;25.70;;;7.65;;
24799;SDS011;12897;50.812;4.430;2023-03-26T16:52:05;24.65;;;7.00;;
24799;SDS011;12897;50.812;4.430;2023-03-26T16:57:27;22.75;;;6.40;;
24799;SDS011;12897;50.812;4.430;2023-03-26T17:05:56;21.75;;;6.30;;
24799;SDS011;12897;50.812;4.430;2023-03-26T17:11:47;22.45;;;6.33;;
24799;SDS011;12897;50.812;4.430;2023-03-26T17:14:19;28.80;;;6.17;;
24799;SDS011;12897;50.812;4.430;2023-03-26T17:16:46;22.10;;;5.60;;
24799;SDS011;12897;50.812;4.430;2023-03-26T17:22:00;34.03;;;5.25;;
24799;SDS011;12897;50.812;4.430;2023-03-26T17:27:24;28.20;;;4.58;;
24799;SDS011;12897;50.812;4.430;2023-03-26T17:32:57;22.42;;;5.35;;
24799;SDS011;12897;50.812;4.430;2023-03-26T17:40:55;20.45;;;4.95;;
24799;SDS011;12897;50.812;4.430;2023-03-26T17:43:34;23.02;;;4.45;;
24799;SDS011;12897;50.812;4.430;2023-03-26T17:46:21;16.42;;;4.08;;
24799;SDS011;12897;50.812;4.430;2023-03-26T17:48:56;17.57;;;3.67;;
24799;SDS011;12897;50.812;4.430;2023-03-26T17:51:33;26.25;;;4.65;;
24799;SDS011;12897;50.812;4.430;2023-03-26T17:54:17;19.25;;;4.67;;
24799;SDS011;12897;50.812;4.430;2023-03-26T17:56:42;24.07;;;4.12;;
24799;SDS011;12897;50.812;4.430;2023-03-26T17:59:14;22.85;;;3.62;;
24799;SDS011;12897;50.812;4.430;2023-03-26T18:01:42;17.82;;;3.30;;
24799;SDS011;12897;50.812;4.430;2023-03-26T18:04:18;19.25;;;3.92;;
24799;SDS011;12897;50.812;4.430;2023-03-26T18:17:42;21.45;;;4.55;;
24799;SDS011;12897;50.812;4.430;2023-03-26T18:20:21;22.20;;;4.20;;
24799;SDS011;12897;50.812;4.430;2023-03-26T18:22:50;15.03;;;3.02;;
24799;SDS011;12897;50.812;4.430;2023-03-26T18:25:23;19.70;;;3.20;;
24799;SDS011;12897;50.812;4.430;2023-03-26T18:27:57;17.48;;;3.83;;
24799;SDS011;12897;50.812;4.430;2023-03-26T18:30:29;20.20;;;3.70;;
24799;SDS011;12897;50.812;4.430;2023-03-26T18:35:39;19.62;;;2.75;;
24799;SDS011;12897;50.812;4.430;2023-03-26T18:38:14;25.77;;;3.53;;
24799;SDS011;12897;50.812;4.430;2023-03-26T18:40:40;23.30;;;4.08;;
24799;SDS011;12897;50.812;4.430;2023-03-26T18:43:12;23.63;;;3.50;;
24799;SDS011;12897;50.812;4.430;2023-03-26T18:45:50;18.17;;;2.87;;
24799;SDS011;12897;50.812;4.430;2023-03-26T18:50:50;16.45;;;2.92;;
24799;SDS011;12897;50.812;4.430;2023-03-26T18:53:21;24.12;;;3.98;;
24799;SDS011;12897;50.812;4.430;2023-03-26T18:55:51;19.20;;;3.37;;
24799;SDS011;12897;50.812;4.430;2023-03-26T18:58:28;20.48;;;3.35;;
24799;SDS011;12897;50.812;4.430;2023-03-26T19:01:01;14.60;;;3.22;;
24799;SDS011;12897;50.812;4.430;2023-03-26T19:03:38;22.27;;;3.12;;
24799;SDS011;12897;50.812;4.430;2023-03-26T19:06:10;15.95;;;2.70;;
24799;SDS011;12897;50.812;4.430;2023-03-26T19:08:40;22.77;;;2.92;;
24799;SDS011;12897;50.812;4.430;2023-03-26T19:11:10;20.70;;;3.20;;
24799;SDS011;12897;50.812;4.430;2023-03-26T19:13:40;18.45;;;3.55;;
24799;SDS011;12897;50.812;4.430;2023-03-26T19:16:11;13.50;;;3.00;;
24799;SDS011;12897;50.812;4.430;2023-03-26T19:18:41;12.68;;;2.35;;
24799;SDS011;12897;50.812;4.430;2023-03-26T19:23:58;18.85;;;2.85;;
24799;SDS011;12897;50.812;4.430;2023-03-26T19:26:29;17.05;;;3.20;;
24799;SDS011;12897;50.812;4.430;2023-03-26T19:28:57;14.90;;;2.62;;
24799;SDS011;12897;50.812;4.430;2023-03-26T19:31:26;14.75;;;2.62;;
24799;SDS011;12897;50.812;4.430;2023-03-26T19:34:02;17.17;;;3.25;;
24799;SDS011;12897;50.812;4.430;2023-03-26T19:39:20;18.15;;;2.65;;
24799;SDS011;12897;50.812;4.430;2023-03-26T19:41:49;14.00;;;2.98;;
24799;SDS011;12897;50.812;4.430;2023-03-26T19:44:19;24.97;;;3.07;;
24799;SDS011;12897;50.812;4.430;2023-03-26T19:46:51;22.37;;;3.40;;
24799;SDS011;12897;50.812;4.430;2023-03-26T19:49:32;17.07;;;3.02;;
24799;SDS011;12897;50.812;4.430;2023-03-26T19:52:14;19.25;;;3.27;;
24799;SDS011;12897;50.812;4.430;2023-03-26T19:54:51;17.15;;;3.00;;
24799;SDS011;12897;50.812;4.430;2023-03-26T19:57:24;19.73;;;3.12;;
24799;SDS011;12897;50.812;4.430;2023-03-26T19:59:51;18.20;;;3.05;;
24799;SDS011;12897;50.812;4.430;2023-03-26T20:02:20;16.35;;;3.20;;
24799;SDS011;12897;50.812;4.430;2023-03-26T20:04:48;13.30;;;2.90;;
24799;SDS011;12897;50.812;4.430;2023-03-26T20:07:17;18.85;;;3.12;;
24799;SDS011;12897;50.812;4.430;2023-03-26T20:09:47;14.40;;;2.80;;